createdAt,value
2019-03-02T00:29:46.982Z,86.50
2019-03-02T00:32:51.069Z,86.76
2019-03-02T00:35:55.017Z,87.04
2019-03-02T00:38:58.957Z,87.11
2019-03-02T00:42:02.971Z,87.20
2019-03-02T00:45:07.288Z,87.29
2019-03-02T00:48:12.387Z,87.42
2019-03-02T00:51:17.028Z,87.58
2019-03-02T00:54:21.107Z,87.55
2019-03-02T00:57:25.141Z,87.56
2019-03-02T01:00:29.162Z,87.68
2019-03-02T01:03:33.209Z,87.88
2019-03-02T01:06:37.240Z,87.95
2019-03-02T01:09:43.660Z,87.88
2019-03-02T01:16:32.157Z,87.73
2019-03-02T01:19:36.435Z,87.92
2019-03-02T01:22:40.612Z,87.95
2019-03-02T01:25:45.511Z,87.97
2019-03-02T01:28:50.404Z,87.89
2019-03-02T01:31:54.378Z,87.81
2019-03-02T01:34:58.407Z,87.73
2019-03-02T01:38:02.403Z,87.75
2019-03-02T01:41:07.260Z,87.78
2019-03-02T01:44:12.684Z,87.79
2019-03-02T01:47:17.083Z,87.79
2019-03-02T01:50:21.099Z,87.80
2019-03-02T01:53:25.052Z,87.82
2019-03-02T01:56:29.120Z,87.87
2019-03-02T01:59:35.424Z,87.90
2019-03-02T02:02:38.606Z,87.90
2019-03-02T02:05:42.594Z,87.84
2019-03-02T02:08:46.667Z,87.88
2019-03-02T02:11:53.308Z,87.80
2019-03-02T02:14:56.404Z,87.82
2019-03-02T02:18:00.653Z,87.85
2019-03-02T02:21:04.710Z,87.91
2019-03-02T02:24:08.696Z,87.96
2019-03-02T02:27:12.663Z,88.01
2019-03-02T02:30:26.272Z,88.03
2019-03-02T02:33:29.685Z,88.08
2019-03-02T02:36:33.667Z,88.12
2019-03-02T02:39:37.550Z,88.13
2019-03-02T02:42:43.162Z,88.08
2019-03-02T02:45:49.100Z,88.03
2019-03-02T02:48:52.822Z,88.02
2019-03-02T02:51:56.824Z,88.25
2019-03-02T02:55:02.425Z,88.57
2019-03-02T02:58:06.429Z,88.64
2019-03-02T03:01:10.479Z,88.67
2019-03-02T03:04:14.413Z,88.62
2019-03-02T03:07:18.370Z,88.54
2019-03-02T03:10:27.813Z,88.57
2019-03-02T03:13:35.966Z,88.61
2019-03-02T03:16:37.887Z,88.56
2019-03-02T03:19:41.824Z,88.48
2019-03-02T03:22:47.388Z,88.70
2019-03-02T03:25:56.208Z,88.58
2019-03-02T03:28:57.330Z,88.48
2019-03-02T03:32:08.725Z,88.57
2019-03-02T03:35:15.432Z,88.85
2019-03-02T03:38:12.751Z,88.89
2019-03-02T03:41:16.835Z,89.01
2019-03-02T03:44:25.639Z,88.93
2019-03-02T03:47:26.630Z,88.96
2019-03-02T03:50:30.665Z,89.07
2019-03-02T03:53:34.798Z,88.98
2019-03-02T03:56:42.460Z,89.13
2019-03-02T03:59:44.449Z,89.20
2019-03-02T04:02:48.436Z,89.15
2019-03-02T04:05:52.482Z,89.13
2019-03-02T04:08:56.570Z,89.18
2019-03-02T04:12:00.482Z,89.20
2019-03-02T04:15:04.806Z,89.20
2019-03-02T04:21:44.384Z,89.21
2019-03-02T04:24:48.365Z,89.28
2019-03-02T04:27:54.257Z,89.30
2019-03-02T04:30:58.484Z,89.32
2019-03-02T04:34:02.390Z,89.29
2019-03-02T04:37:06.293Z,89.24
2019-03-02T04:40:10.429Z,89.22
2019-03-02T04:43:15.073Z,89.11
2019-03-02T04:46:19.010Z,89.08
2019-03-02T04:49:22.936Z,89.18
2019-03-02T04:52:26.955Z,89.19
2019-03-02T04:55:30.910Z,89.22
2019-03-02T04:58:38.285Z,89.14
2019-03-02T05:01:46.228Z,89.03
2019-03-02T05:04:50.170Z,88.70
2019-03-02T05:07:54.254Z,88.83
2019-03-02T05:11:00.697Z,89.04
2019-03-02T05:14:05.365Z,88.99
2019-03-02T05:17:10.362Z,88.97
2019-03-02T05:20:14.744Z,89.04
2019-03-02T05:23:18.748Z,89.14
2019-03-02T05:26:22.751Z,89.15
2019-03-02T05:29:26.661Z,89.05
2019-03-02T05:32:30.562Z,89.09
2019-03-02T05:35:34.536Z,89.10
2019-03-02T05:38:38.565Z,89.07
2019-03-02T05:41:50.184Z,88.93
2019-03-02T05:44:54.194Z,88.84
2019-03-02T05:48:01.010Z,88.66
2019-03-02T05:51:06.749Z,88.61
2019-03-02T05:54:09.987Z,89.18
2019-03-02T06:00:51.952Z,88.82
2019-03-02T06:03:55.967Z,89.25
2019-03-02T06:06:59.893Z,89.52
2019-03-02T06:10:03.947Z,89.80
2019-03-02T06:13:08.572Z,90.06
2019-03-02T06:16:12.637Z,90.23
2019-03-02T06:19:17.413Z,90.40
2019-03-02T06:22:22.475Z,90.64
2019-03-02T06:25:26.525Z,90.71
2019-03-02T06:28:30.471Z,90.76
2019-03-02T06:31:34.495Z,90.67
2019-03-02T06:34:38.540Z,90.73
2019-03-02T06:37:42.467Z,90.51
2019-03-02T06:40:46.448Z,90.14
2019-03-02T06:43:50.551Z,90.29
2019-03-02T06:46:58.098Z,90.48
2019-03-02T06:50:00.479Z,90.54
2019-03-02T06:53:04.605Z,90.54
2019-03-02T06:56:08.605Z,90.59
2019-03-02T06:59:13.424Z,90.70
2019-03-02T07:02:37.737Z,90.78
2019-03-02T07:05:41.777Z,91.02
2019-03-02T07:08:45.877Z,91.29
2019-03-02T07:11:50.932Z,91.53
2019-03-02T07:14:54.968Z,91.83
2019-03-02T07:18:24.959Z,91.94
2019-03-02T07:21:28.928Z,91.92
2019-03-02T07:24:32.837Z,91.74
2019-03-02T07:27:37.016Z,90.79
2019-03-02T07:30:41.208Z,90.71
2019-03-02T07:33:45.231Z,90.01
2019-03-02T07:36:49.218Z,89.26
2019-03-02T07:39:53.238Z,88.65
2019-03-02T07:42:57.339Z,88.44
2019-03-02T07:46:01.232Z,88.21
2019-03-02T07:49:05.185Z,88.52
2019-03-02T07:52:09.249Z,88.23
2019-03-02T07:55:14.787Z,87.69
2019-03-02T07:58:21.363Z,87.05
2019-03-02T08:01:25.208Z,87.20
2019-03-02T08:04:29.236Z,87.39
2019-03-02T08:07:34.113Z,86.92
2019-03-02T08:10:39.860Z,86.91
2019-03-02T08:13:43.717Z,86.38
2019-03-02T08:16:47.613Z,85.64
2019-03-02T08:19:51.662Z,85.16
2019-03-02T08:22:55.691Z,85.11
2019-03-02T08:25:59.995Z,84.85
2019-03-02T08:29:04.068Z,84.19
2019-03-02T08:32:08.059Z,83.83
2019-03-02T08:35:12.809Z,84.29
2019-03-02T08:38:16.748Z,84.20
2019-03-02T08:41:20.889Z,84.07
2019-03-02T08:44:25.062Z,82.97
2019-03-02T08:47:28.877Z,81.86
2019-03-02T08:50:32.926Z,81.31
2019-03-02T08:53:36.893Z,80.73
2019-03-02T08:56:43.867Z,78.24
2019-03-02T08:59:46.647Z,75.18
2019-03-02T09:02:59.068Z,75.05
2019-03-02T09:06:11.078Z,75.42
2019-03-02T09:09:09.510Z,75.90
2019-03-02T09:12:13.429Z,73.31
2019-03-02T09:15:22.292Z,73.03
2019-03-02T09:18:30.721Z,71.90
2019-03-02T09:21:34.568Z,71.76
2019-03-02T09:24:38.937Z,70.55
2019-03-02T09:27:43.315Z,70.79
2019-03-02T09:30:48.190Z,71.45
2019-03-02T09:33:52.875Z,70.11
2019-03-02T09:36:57.290Z,69.96
2019-03-02T09:40:01.504Z,69.27
2019-03-02T09:43:05.724Z,69.08
2019-03-02T09:46:09.843Z,69.40
2019-03-02T09:49:14.134Z,70.90
2019-03-02T09:52:18.644Z,69.62
2019-03-02T09:55:22.720Z,70.16
2019-03-02T09:58:26.705Z,70.25
2019-03-02T10:01:31.028Z,70.76
2019-03-02T10:04:35.822Z,70.30
2019-03-02T10:07:44.168Z,70.71
2019-03-02T10:10:48.394Z,70.81
2019-03-02T10:13:55.598Z,71.83
2019-03-02T10:16:59.863Z,71.68
2019-03-02T10:20:05.215Z,73.89
2019-03-02T10:23:09.966Z,73.95
2019-03-02T10:26:15.812Z,73.65
2019-03-02T10:29:32.453Z,75.46
2019-03-02T10:32:36.847Z,75.82
2019-03-02T10:35:42.836Z,75.22
2019-03-02T10:38:46.978Z,74.16
2019-03-02T10:41:57.073Z,75.07
2019-03-02T10:45:00.284Z,73.63
2019-03-02T10:48:04.548Z,74.25
2019-03-02T10:51:08.782Z,74.19
2019-03-02T10:54:13.152Z,74.89
2019-03-02T10:57:17.252Z,75.24
2019-03-02T11:00:29.242Z,74.64
2019-03-02T11:03:31.761Z,75.25
2019-03-02T11:06:56.650Z,75.04
2019-03-02T11:10:12.921Z,74.86
2019-03-02T11:13:31.124Z,74.70
2019-03-02T11:16:44.526Z,75.27
2019-03-02T11:20:03.816Z,75.13
2019-03-02T11:23:25.700Z,75.33
2019-03-02T11:26:48.809Z,75.16
2019-03-02T11:30:22.773Z,75.51
2019-03-02T11:33:43.313Z,74.13
2019-03-02T11:37:13.697Z,74.48
2019-03-02T11:40:45.532Z,73.46
2019-03-02T11:44:14.284Z,72.37
2019-03-02T11:48:24.117Z,71.17
2019-03-02T11:51:40.806Z,72.79
2019-03-02T11:55:06.967Z,72.40
2019-03-02T12:01:51.573Z,71.82
2019-03-02T12:05:12.860Z,71.60
2019-03-02T12:08:41.982Z,71.55
2019-03-02T12:11:56.394Z,70.43
2019-03-02T12:15:18.301Z,70.09
2019-03-02T12:18:39.805Z,68.37
2019-03-02T12:22:05.575Z,69.34
2019-03-02T12:25:47.492Z,69.11
2019-03-02T12:29:13.368Z,69.95
2019-03-02T12:32:35.677Z,68.99
2019-03-02T12:35:51.173Z,67.86
2019-03-02T12:39:08.636Z,68.10
2019-03-02T12:42:26.715Z,67.19
2019-03-02T12:45:45.165Z,67.18
2019-03-02T12:48:55.524Z,67.44
2019-03-02T12:52:21.713Z,68.64
2019-03-02T12:55:56.782Z,68.62
2019-03-02T12:59:20.944Z,69.21
2019-03-02T13:02:51.302Z,71.00
2019-03-02T13:06:04.311Z,70.46
2019-03-02T13:09:19.910Z,71.63
2019-03-02T13:12:45.777Z,72.86
2019-03-02T13:16:27.019Z,73.00
2019-03-02T13:19:48.535Z,73.06
2019-03-02T13:23:06.551Z,73.40
2019-03-02T13:26:25.050Z,73.79
2019-03-02T13:29:39.436Z,74.64
2019-03-02T13:32:59.969Z,74.42
2019-03-02T13:36:21.757Z,73.89
2019-03-02T13:39:51.211Z,74.62
2019-03-02T13:43:04.606Z,75.01
2019-03-02T13:46:31.059Z,75.40
2019-03-02T13:49:45.267Z,75.41
2019-03-02T13:53:26.393Z,75.90
2019-03-02T13:56:46.217Z,75.82
2019-03-02T14:00:09.244Z,76.73
2019-03-02T14:03:20.806Z,77.22
2019-03-02T14:06:43.734Z,76.87
2019-03-02T14:10:15.749Z,77.32
2019-03-02T14:13:47.824Z,76.25
2019-03-02T14:16:59.098Z,77.72
2019-03-02T14:20:26.147Z,77.22
2019-03-02T14:23:37.685Z,76.55
2019-03-02T14:26:46.999Z,77.00
2019-03-02T14:30:02.886Z,76.13
2019-03-02T14:33:29.395Z,76.20
2019-03-02T14:36:36.645Z,76.76
2019-03-02T14:40:02.022Z,76.23
2019-03-02T14:43:23.768Z,76.59
2019-03-02T14:46:34.392Z,76.14
2019-03-02T14:50:02.080Z,75.90
2019-03-02T14:53:25.130Z,76.48
2019-03-02T14:56:39.817Z,76.15
2019-03-02T15:00:05.069Z,76.03
2019-03-02T15:03:29.320Z,76.47
2019-03-02T15:06:49.944Z,76.07
2019-03-02T15:10:10.141Z,76.24
2019-03-02T15:13:38.240Z,76.20
2019-03-02T15:17:01.168Z,76.98
2019-03-02T15:20:23.808Z,76.97
2019-03-02T15:23:38.938Z,76.82
2019-03-02T15:27:08.006Z,77.20
2019-03-02T15:30:40.017Z,76.84
2019-03-02T15:33:56.059Z,77.05
2019-03-02T15:37:09.325Z,77.46
2019-03-02T15:40:32.312Z,77.23
2019-03-02T15:44:00.200Z,77.59
2019-03-02T15:47:23.389Z,77.59
2019-03-02T15:50:38.597Z,77.24
2019-03-02T15:54:00.113Z,77.28
2019-03-02T15:57:39.617Z,77.02
2019-03-02T16:00:50.539Z,76.96
2019-03-02T16:04:12.551Z,76.98
2019-03-02T16:07:34.990Z,76.81
2019-03-02T16:10:58.789Z,76.73
2019-03-02T16:14:21.843Z,76.61
2019-03-02T16:17:41.471Z,76.75
2019-03-02T16:20:50.668Z,76.75
2019-03-02T16:24:04.545Z,76.93
2019-03-02T16:27:30.145Z,76.84
2019-03-02T16:30:40.370Z,76.77
2019-03-02T16:34:04.259Z,76.79
2019-03-02T16:37:25.078Z,76.64
2019-03-02T16:40:47.921Z,76.79
2019-03-02T16:44:05.144Z,77.11
2019-03-02T16:47:44.895Z,77.43
2019-03-02T16:51:06.359Z,77.46
2019-03-02T16:54:33.242Z,77.69
2019-03-02T16:57:55.058Z,77.84
2019-03-02T17:01:30.151Z,78.13
2019-03-02T17:04:55.407Z,78.18
2019-03-02T17:08:14.017Z,78.40
2019-03-02T17:11:37.101Z,78.60
2019-03-02T17:14:58.767Z,78.71
2019-03-02T17:18:17.061Z,78.79
2019-03-02T17:21:32.770Z,78.89
2019-03-02T17:24:54.061Z,79.12
2019-03-02T17:28:13.248Z,79.44
2019-03-02T17:31:40.454Z,79.42
2019-03-02T17:35:02.489Z,79.10
2019-03-02T17:38:31.432Z,79.35
2019-03-02T17:42:00.421Z,79.31
2019-03-02T17:45:26.591Z,79.25
2019-03-02T17:48:52.885Z,79.25
2019-03-02T17:52:15.560Z,79.20
2019-03-02T17:55:28.460Z,79.29
2019-03-02T17:58:45.255Z,79.43
2019-03-02T18:02:11.202Z,79.21
2019-03-02T18:05:31.390Z,79.24
2019-03-02T18:08:57.778Z,79.10
2019-03-02T18:12:19.361Z,78.87
2019-03-02T18:15:39.777Z,78.88
2019-03-02T18:18:43.591Z,78.93
2019-03-02T18:21:47.482Z,78.89
2019-03-02T18:24:51.394Z,78.63
2019-03-02T18:27:55.699Z,78.44
2019-03-02T18:30:59.828Z,78.51
2019-03-02T18:34:09.772Z,78.52
2019-03-02T18:37:13.732Z,78.53
2019-03-02T18:40:17.858Z,78.26
2019-03-02T18:43:21.763Z,78.45
2019-03-02T18:46:25.690Z,78.56
2019-03-02T18:49:38.087Z,78.79
2019-03-02T18:53:15.911Z,78.69
2019-03-02T18:56:20.004Z,78.88
2019-03-02T18:59:23.959Z,79.12
2019-03-02T19:02:29.096Z,79.45
2019-03-02T19:05:33.223Z,79.44
2019-03-02T19:08:37.046Z,79.39
2019-03-02T19:11:40.891Z,79.48
2019-03-02T19:14:44.719Z,79.27
2019-03-02T19:17:48.678Z,79.47
2019-03-02T19:20:52.504Z,79.66
2019-03-02T19:23:56.322Z,79.94
2019-03-02T19:27:00.220Z,80.07
2019-03-02T19:30:04.205Z,80.16
2019-03-02T19:33:08.161Z,80.14
2019-03-02T19:36:11.995Z,80.28
2019-03-02T19:39:22.280Z,80.29
2019-03-02T19:42:26.177Z,80.28
2019-03-02T19:45:30.101Z,80.30
2019-03-02T19:48:33.888Z,80.20
2019-03-02T19:51:37.830Z,80.41
2019-03-02T19:54:41.661Z,80.60
2019-03-02T19:57:45.641Z,80.51
2019-03-02T20:00:49.536Z,80.46
2019-03-02T20:03:53.405Z,80.69
2019-03-02T20:06:57.373Z,80.95
2019-03-02T20:10:01.371Z,81.22
2019-03-02T20:13:05.316Z,81.21
2019-03-02T20:16:11.966Z,81.30
2019-03-02T20:19:18.322Z,81.74
2019-03-02T20:22:22.390Z,82.16
2019-03-02T20:25:26.256Z,82.17
2019-03-02T20:28:30.068Z,82.21
2019-03-02T20:31:34.291Z,82.28
2019-03-02T20:34:38.312Z,82.60
2019-03-02T20:37:42.354Z,82.49
2019-03-02T20:40:46.218Z,82.66
2019-03-02T20:43:50.352Z,82.92
2019-03-02T20:46:54.372Z,82.99
2019-03-02T20:49:58.711Z,83.01
2019-03-02T20:53:02.756Z,83.17
2019-03-02T20:56:06.896Z,83.20
2019-03-02T20:59:10.952Z,83.35
2019-03-02T21:02:14.914Z,83.09
2019-03-02T21:05:18.941Z,83.02
2019-03-02T21:08:22.860Z,83.21
2019-03-02T21:11:26.938Z,83.28
2019-03-02T21:14:30.934Z,83.57
2019-03-02T21:17:34.842Z,83.64
2019-03-02T21:20:39.081Z,83.68
2019-03-02T21:23:42.998Z,83.78
2019-03-02T21:26:47.090Z,83.22
2019-03-02T21:29:50.918Z,83.53
2019-03-02T21:32:55.168Z,83.53
2019-03-02T21:35:59.035Z,83.43
2019-03-02T21:39:02.925Z,83.26
2019-03-02T21:42:06.897Z,83.37
2019-03-02T21:45:13.108Z,83.60
2019-03-02T21:48:16.949Z,83.69
2019-03-02T21:51:22.719Z,83.73
2019-03-02T21:54:26.606Z,83.92
2019-03-02T21:57:30.536Z,84.07
2019-03-02T22:00:34.350Z,84.01
2019-03-02T22:03:38.301Z,83.93
2019-03-02T22:06:42.214Z,84.06
2019-03-02T22:09:46.050Z,84.27
2019-03-02T22:12:50.158Z,84.06
2019-03-02T22:15:54.154Z,84.11
2019-03-02T22:18:58.074Z,84.30
2019-03-02T22:22:01.932Z,84.35
2019-03-02T22:25:06.783Z,84.40
2019-03-02T22:28:10.802Z,84.33
2019-03-02T22:31:14.959Z,84.38
2019-03-02T22:34:19.305Z,84.35
2019-03-02T22:37:23.165Z,84.72
2019-03-02T22:40:27.432Z,84.84
2019-03-02T22:43:31.588Z,84.77
2019-03-02T22:46:35.542Z,85.02
2019-03-02T22:49:39.767Z,84.93
2019-03-02T22:52:43.916Z,85.11
2019-03-02T22:55:47.943Z,84.94
2019-03-02T22:58:51.254Z,84.99
2019-03-02T23:02:18.674Z,84.79
2019-03-02T23:05:22.570Z,84.70
2019-03-02T23:08:26.534Z,84.87
2019-03-02T23:11:30.910Z,84.89
2019-03-02T23:14:35.018Z,84.74
2019-03-02T23:17:39.042Z,85.06
2019-03-02T23:20:43.138Z,85.54
2019-03-02T23:23:47.591Z,86.07
2019-03-02T23:26:51.508Z,86.85
2019-03-02T23:29:55.668Z,87.30
2019-03-02T23:32:59.851Z,87.96
2019-03-02T23:36:03.782Z,89.43
2019-03-02T23:39:08.071Z,90.36
2019-03-02T23:42:12.044Z,90.56
2019-03-02T23:45:16.056Z,91.16
2019-03-02T23:48:19.991Z,91.86
2019-03-02T23:51:23.811Z,92.82
2019-03-02T23:54:27.696Z,92.74
2019-03-02T23:57:31.558Z,93.11
